Time;durP1;ratioP1;P1;durP2;ratioP2;P2;SDS_P1;SDS_P2;PMS_P1;PMS_P2;Temp;Humidity;BMP_temperature;BMP_pressure;BME280_temperature;BME280_humidity;BME280_pressure;Samples;Min_cycle;Max_cycle;Signal;HPM_P1;HPM_P2
2023/03/26 00:01:33;;;;;;;3.90;1.73;;;;;;;;;;6296295;28;20059;-71
2023/03/26 00:04:37;;;;;;;4.90;2.00;;;;;;;;;;6335036;28;20049;-71
2023/03/26 00:08:02;;;;;;;3.67;2.10;;;;;;;;;;6337034;28;20109;-71
2023/03/26 00:11:39;;;;;;;4.50;2.10;;;;;;;;;;6332986;28;20071;-71
2023/03/26 00:18:29;;;;;;;3.60;1.80;;;;;;;;;;6158008;28;20335;-70
2023/03/26 00:34:04;;;;;;;;;;;;;;;;;;;;;
2023/03/26 00:53:41;;;;;;;6.00;2.30;;;;;;;;;;6151106;28;20043;-71
2023/03/26 00:56:54;;;;;;;6.30;2.40;;;;;;;;;;6195362;28;20362;-70
2023/03/26 00:59:56;;;;;;;4.63;2.22;;;;;;;;;;6196554;28;20046;-70
2023/03/26 01:10:39;;;;;;;4.55;2.10;;;;;;;;;;6226775;28;20045;-70
2023/03/26 01:13:55;;;;;;;5.63;2.58;;;;;;;;;;6225721;28;20373;-70
2023/03/26 01:17:00;;;;;;;4.40;1.65;;;;;;;;;;6216795;28;20183;-71
2023/03/26 01:20:25;;;;;;;6.35;1.83;;;;;;;;;;6191575;28;20054;-71
2023/03/26 01:23:41;;;;;;;6.93;2.10;;;;;;;;;;6189437;28;20302;-71
2023/03/26 01:27:12;;;;;;;7.63;2.45;;;;;;;;;;6184144;28;20061;-70
2023/03/26 02:01:15;;;;;;;6.32;2.80;;;;;;;;;;6183223;28;20038;-72
2023/03/26 02:05:06;;;;;;;5.45;3.22;;;;;;;;;;6199792;28;20062;-73
2023/03/26 02:08:11;;;;;;;6.32;2.78;;;;;;;;;;6089546;29;20075;-73
2023/03/26 02:11:15;;;;;;;5.32;2.58;;;;;;;;;;6180219;28;20050;-72
2023/03/26 02:14:20;;;;;;;4.43;2.90;;;;;;;;;;6216221;28;20054;-72
2023/03/26 02:17:26;;;;;;;5.85;2.85;;;;;;;;;;6212979;28;20050;-75
2023/03/26 02:20:29;;;;;;;6.25;3.33;;;;;;;;;;6182782;28;20368;-71
2023/03/26 02:23:47;;;;;;;6.25;3.10;;;;;;;;;;6213048;28;20057;-73
2023/03/26 02:31:29;;;;;;;5.90;2.75;;;;;;;;;;6219094;28;20026;-73
2023/03/26 02:34:31;;;;;;;5.05;2.70;;;;;;;;;;6215791;28;20130;-72
2023/03/26 02:37:36;;;;;;;6.82;2.78;;;;;;;;;;6213048;28;20057;-72
2023/03/26 02:45:29;;;;;;;;;;;;;;;;;;;;;
2023/03/26 02:49:35;;;;;;;7.25;3.53;;;;;;;;;;6274951;28;20039;-70
2023/03/26 02:53:01;;;;;;;5.60;4.22;;;;;;;;;;6311959;28;20556;-69
2023/03/26 02:56:07;;;;;;;8.30;4.95;;;;;;;;;;6320812;28;20046;-70
2023/03/26 02:59:12;;;;;;;8.88;6.07;;;;;;;;;;6309182;28;20052;-71
2023/03/26 03:02:14;;;;;;;11.85;6.53;;;;;;;;;;6317128;28;20059;-70
2023/03/26 03:05:17;;;;;;;10.52;6.20;;;;;;;;;;6317800;28;20052;-71
2023/03/26 03:08:21;;;;;;;13.15;7.63;;;;;;;;;;6319395;28;20067;-71
2023/03/26 03:11:32;;;;;;;10.85;7.95;;;;;;;;;;6318446;28;20052;-71
2023/03/26 03:14:40;;;;;;;10.43;8.15;;;;;;;;;;6317050;28;20062;-71
2023/03/26 03:25:27;;;;;;;13.63;8.50;;;;;;;;;;6263163;28;20204;-70
2023/03/26 03:28:30;;;;;;;14.73;8.65;;;;;;;;;;6275743;28;20099;-69
2023/03/26 03:31:32;;;;;;;12.18;8.68;;;;;;;;;;6338419;28;20121;-70
2023/03/26 03:34:37;;;;;;;18.48;9.23;;;;;;;;;;6340439;28;20066;-69
2023/03/26 03:37:42;;;;;;;14.68;9.40;;;;;;;;;;6339216;28;20126;-69
2023/03/26 03:40:45;;;;;;;12.52;9.07;;;;;;;;;;6339894;28;20059;-70
2023/03/26 03:43:47;;;;;;;17.30;9.00;;;;;;;;;;6340247;28;20062;-70
2023/03/26 03:46:52;;;;;;;12.07;8.65;;;;;;;;;;6338860;28;20093;-70
2023/03/26 03:49:55;;;;;;;13.35;9.70;;;;;;;;;;6338538;28;20039;-70
2023/03/26 03:52:58;;;;;;;13.18;9.98;;;;;;;;;;6338164;28;20366;-70
2023/03/26 03:56:01;;;;;;;16.00;10.25;;;;;;;;;;6355207;27;20255;-69
2023/03/26 03:59:03;;;;;;;14.88;10.35;;;;;;;;;;6360890;27;20044;-70
2023/03/26 04:02:05;;;;;;;16.88;10.65;;;;;;;;;;6361288;27;20059;-70
2023/03/26 04:05:07;;;;;;;17.95;12.02;;;;;;;;;;6361577;27;20043;-70
2023/03/26 04:11:26;;;;;;;15.05;11.25;;;;;;;;;;6350102;28;20067;-69
2023/03/26 04:14:28;;;;;;;16.63;11.80;;;;;;;;;;6360898;27;20737;-70
2023/03/26 04:17:30;;;;;;;16.77;12.27;;;;;;;;;;6359646;27;20123;-69
2023/03/26 04:20:32;;;;;;;20.48;13.05;;;;;;;;;;6359865;28;20108;-69
2023/03/26 04:23:34;;;;;;;20.83;14.05;;;;;;;;;;6359416;28;20047;-70
2023/03/26 04:26:38;;;;;;;18.25;13.32;;;;;;;;;;6361775;28;20055;-70
2023/03/26 04:29:41;;;;;;;21.27;13.57;;;;;;;;;;6358194;28;20111;-70
2023/03/26 04:32:43;;;;;;;20.35;12.90;;;;;;;;;;6362227;28;20047;-70
2023/03/26 04:35:47;;;;;;;22.30;13.95;;;;;;;;;;6359728;28;20048;-69
2023/03/26 04:38:50;;;;;;;19.33;14.18;;;;;;;;;;6362726;27;20051;-70
2023/03/26 04:45:21;;;;;;;19.83;13.68;;;;;;;;;;6364456;27;20079;-69
2023/03/26 04:48:22;;;;;;;21.08;14.10;;;;;;;;;;6367921;27;20078;-69
2023/03/26 04:51:25;;;;;;;20.00;14.18;;;;;;;;;;6365097;27;20066;-70
2023/03/26 04:54:27;;;;;;;20.33;14.02;;;;;;;;;;6366015;27;20336;-69
2023/03/26 04:57:34;;;;;;;19.10;13.98;;;;;;;;;;6367901;27;20311;-69
2023/03/26 05:00:36;;;;;;;22.35;13.57;;;;;;;;;;6366531;27;20051;-70
2023/03/26 05:03:40;;;;;;;18.25;13.88;;;;;;;;;;6365050;27;20056;-70
2023/03/26 05:06:42;;;;;;;20.58;14.18;;;;;;;;;;6365619;27;20047;-70
2023/03/26 05:09:47;;;;;;;21.27;14.90;;;;;;;;;;6365259;27;20051;-69
2023/03/26 05:12:50;;;;;;;22.65;14.07;;;;;;;;;;6354075;27;20223;-70
2023/03/26 05:15:55;;;;;;;23.25;14.57;;;;;;;;;;6366951;27;20047;-69
2023/03/26 05:18:56;;;;;;;20.92;13.82;;;;;;;;;;6361791;27;20101;-70
2023/03/26 05:21:58;;;;;;;21.60;15.23;;;;;;;;;;6364180;27;20043;-69
2023/03/26 05:25:00;;;;;;;24.75;14.93;;;;;;;;;;6364892;27;20047;-69
2023/03/26 05:28:04;;;;;;;21.98;15.10;;;;;;;;;;6367254;27;20048;-69
2023/03/26 05:31:07;;;;;;;24.25;16.10;;;;;;;;;;6364263;27;20106;-70
2023/03/26 05:34:08;;;;;;;24.95;15.68;;;;;;;;;;6362479;27;20102;-69
2023/03/26 05:37:10;;;;;;;24.17;15.68;;;;;;;;;;6363466;27;20078;-69
2023/03/26 05:40:15;;;;;;;21.90;15.10;;;;;;;;;;6365628;27;20043;-70
2023/03/26 05:43:20;;;;;;;27.17;16.25;;;;;;;;;;6364204;27;20268;-70
2023/03/26 05:46:22;;;;;;;23.45;15.65;;;;;;;;;;6363572;27;20059;-69
2023/03/26 05:49:24;;;;;;;21.77;14.65;;;;;;;;;;6364550;27;20051;-69
2023/03/26 05:52:25;;;;;;;25.90;17.33;;;;;;;;;;6369177;27;20059;-70
2023/03/26 05:55:28;;;;;;;22.88;15.75;;;;;;;;;;6368598;27;20055;-69
2023/03/26 05:58:33;;;;;;;20.75;15.32;;;;;;;;;;6370719;27;20054;-69
2023/03/26 06:01:34;;;;;;;24.55;16.27;;;;;;;;;;6365423;27;20048;-70
2023/03/26 06:04:39;;;;;;;23.13;15.18;;;;;;;;;;6364271;27;20059;-70
2023/03/26 06:07:41;;;;;;;22.27;14.52;;;;;;;;;;6365543;27;20043;-69
2023/03/26 06:10:43;;;;;;;20.50;14.85;;;;;;;;;;6364354;27;20054;-70
2023/03/26 06:13:47;;;;;;;23.75;14.15;;;;;;;;;;6363271;27;20289;-69
2023/03/26 06:16:49;;;;;;;23.30;16.40;;;;;;;;;;6362289;27;20311;-69
2023/03/26 06:19:51;;;;;;;23.05;15.45;;;;;;;;;;6364741;27;20107;-69
2023/03/26 06:22:52;;;;;;;24.75;15.05;;;;;;;;;;6362513;27;20071;-70
2023/03/26 06:25:54;;;;;;;20.98;15.32;;;;;;;;;;6366316;27;20320;-69
2023/03/26 06:28:58;;;;;;;18.40;14.60;;;;;;;;;;6363980;27;20078;-70
2023/03/26 06:32:00;;;;;;;19.08;13.88;;;;;;;;;;6364307;27;20127;-69
2023/03/26 06:35:01;;;;;;;19.65;13.50;;;;;;;;;;6363907;27;20059;-69
2023/03/26 06:38:04;;;;;;;21.58;14.20;;;;;;;;;;6362466;27;20343;-70
2023/03/26 06:41:06;;;;;;;20.50;14.60;;;;;;;;;;6360762;27;20123;-70
2023/03/26 06:44:10;;;;;;;19.58;13.95;;;;;;;;;;6362117;27;20249;-69
2023/03/26 06:47:12;;;;;;;16.35;12.40;;;;;;;;;;6360197;27;20077;-69
2023/03/26 06:50:14;;;;;;;18.45;12.93;;;;;;;;;;6365141;27;20043;-70
2023/03/26 06:53:16;;;;;;;20.20;12.23;;;;;;;;;;6361748;27;20062;-69
2023/03/26 06:56:17;;;;;;;18.75;12.93;;;;;;;;;;6361787;27;20074;-69
2023/03/26 06:59:21;;;;;;;16.55;11.95;;;;;;;;;;6362991;27;20063;-69
2023/03/26 07:02:23;;;;;;;17.83;11.77;;;;;;;;;;6361850;27;20071;-70
2023/03/26 07:05:24;;;;;;;15.25;11.75;;;;;;;;;;6365378;27;20069;-69
2023/03/26 07:08:26;;;;;;;16.05;11.63;;;;;;;;;;6359402;27;20061;-69
2023/03/26 07:11:28;;;;;;;18.27;11.95;;;;;;;;;;6361360;27;20149;-69
2023/03/26 07:14:31;;;;;;;15.25;10.45;;;;;;;;;;6361306;27;20055;-69
2023/03/26 07:17:33;;;;;;;16.13;11.00;;;;;;;;;;6363559;27;20055;-69
2023/03/26 07:20:35;;;;;;;16.60;10.98;;;;;;;;;;6361306;27;20054;-69
2023/03/26 07:23:37;;;;;;;14.73;9.80;;;;;;;;;;6361086;27;20051;-69
2023/03/26 07:26:48;;;;;;;15.02;10.50;;;;;;;;;;6364648;27;20051;-69
2023/03/26 07:29:55;;;;;;;15.73;10.13;;;;;;;;;;6363358;27;20046;-69
2023/03/26 07:33:00;;;;;;;12.50;8.57;;;;;;;;;;6351600;27;20046;-70
2023/03/26 07:36:10;;;;;;;13.75;9.60;;;;;;;;;;6359800;27;20058;-69
2023/03/26 07:39:26;;;;;;;13.68;9.95;;;;;;;;;;6362383;27;20059;-70
2023/03/26 07:42:37;;;;;;;15.43;10.38;;;;;;;;;;6360420;27;20055;-70
2023/03/26 07:45:42;;;;;;;11.88;8.95;;;;;;;;;;6359053;27;20093;-70
2023/03/26 07:48:47;;;;;;;11.65;8.70;;;;;;;;;;6359495;27;20093;-70
2023/03/26 07:51:49;;;;;;;13.88;8.63;;;;;;;;;;6362803;27;20069;-69
2023/03/26 07:54:52;;;;;;;14.02;8.65;;;;;;;;;;6360090;27;20063;-70
2023/03/26 07:58:03;;;;;;;12.40;7.90;;;;;;;;;;6361566;27;20376;-69
2023/03/26 08:01:13;;;;;;;12.90;8.45;;;;;;;;;;6362229;27;20054;-70
2023/03/26 08:04:44;;;;;;;11.35;7.80;;;;;;;;;;6364173;27;20470;-69
2023/03/26 08:07:56;;;;;;;12.25;8.55;;;;;;;;;;6258950;28;20041;-69
2023/03/26 08:11:10;;;;;;;14.20;9.57;;;;;;;;;;6245889;28;20045;-69
2023/03/26 08:14:17;;;;;;;;;;;;;;;;;;6250377;28;20118;-69
2023/03/26 08:17:27;;;;;;;11.77;8.45;;;;;;;;;;6257222;28;19925;-70
2023/03/26 08:20:37;;;;;;;8.90;7.85;;;;;;;;;;6259239;28;20064;-69
2023/03/26 08:23:44;;;;;;;11.45;7.50;;;;;;;;;;6257852;28;20061;-70
2023/03/26 08:26:54;;;;;;;9.85;7.13;;;;;;;;;;6258231;28;20333;-70
2023/03/26 08:30:03;;;;;;;12.52;8.02;;;;;;;;;;6259097;28;20052;-70
2023/03/26 08:33:15;;;;;;;10.50;7.18;;;;;;;;;;6259820;28;20365;-70
2023/03/26 08:36:41;;;;;;;10.65;6.93;;;;;;;;;;6259414;28;20045;-69
2023/03/26 08:39:43;;;;;;;12.57;6.97;;;;;;;;;;6249141;28;20144;-69
2023/03/26 08:43:11;;;;;;;11.38;7.30;;;;;;;;;;6295389;28;20044;-70
2023/03/26 08:46:27;;;;;;;11.20;7.78;;;;;;;;;;6361978;27;20051;-70
2023/03/26 08:53:39;;;;;;;9.65;7.25;;;;;;;;;;6348427;28;20048;-70
2023/03/26 08:56:49;;;;;;;9.40;6.78;;;;;;;;;;6363414;28;20421;-70
2023/03/26 09:00:25;;;;;;;11.77;6.90;;;;;;;;;;6361432;28;20059;-70
2023/03/26 09:04:11;;;;;;;7.80;6.38;;;;;;;;;;6281302;28;20056;-70
2023/03/26 09:07:31;;;;;;;8.57;6.80;;;;;;;;;;6207623;28;20055;-70
2023/03/26 09:10:51;;;;;;;10.98;7.28;;;;;;;;;;6208247;28;20423;-70
2023/03/26 09:14:25;;;;;;;9.82;7.07;;;;;;;;;;6208539;28;20053;-70
2023/03/26 09:18:10;;;;;;;7.97;6.60;;;;;;;;;;6207094;28;20062;-70
2023/03/26 09:21:54;;;;;;;9.10;6.90;;;;;;;;;;6201480;28;20860;-70
2023/03/26 09:25:38;;;;;;;10.57;7.18;;;;;;;;;;6210854;28;20070;-70
2023/03/26 09:29:17;;;;;;;9.48;6.72;;;;;;;;;;6210004;28;20046;-70
2023/03/26 09:36:24;;;;;;;9.57;7.32;;;;;;;;;;6210842;28;20050;-70
2023/03/26 09:39:39;;;;;;;9.63;6.50;;;;;;;;;;6230550;28;20131;-70
2023/03/26 09:42:45;;;;;;;14.25;7.38;;;;;;;;;;6331165;27;20105;-71
2023/03/26 09:45:55;;;;;;;9.05;7.18;;;;;;;;;;6364911;27;20110;-70
2023/03/26 09:49:10;;;;;;;8.45;6.63;;;;;;;;;;6363570;27;20071;-70
2023/03/26 09:52:20;;;;;;;9.82;7.63;;;;;;;;;;6366396;27;20085;-70
2023/03/26 09:55:47;;;;;;;8.55;7.03;;;;;;;;;;6363519;27;20078;-70
2023/03/26 09:59:29;;;;;;;10.25;7.30;;;;;;;;;;6359993;27;20055;-70
2023/03/26 10:02:43;;;;;;;13.77;7.10;;;;;;;;;;6365958;27;20243;-70
2023/03/26 10:05:52;;;;;;;8.05;6.72;;;;;;;;;;6354125;27;20062;-70
2023/03/26 10:09:19;;;;;;;11.43;6.68;;;;;;;;;;6363705;27;20063;-70
2023/03/26 10:12:37;;;;;;;14.57;6.85;;;;;;;;;;6366984;27;20114;-70
2023/03/26 10:15:56;;;;;;;9.40;6.65;;;;;;;;;;6359624;27;20274;-70
2023/03/26 10:19:14;;;;;;;9.38;6.60;;;;;;;;;;6363545;27;20403;-70
2023/03/26 10:22:38;;;;;;;7.57;6.63;;;;;;;;;;6363343;27;20157;-70
2023/03/26 10:25:45;;;;;;;;;;;;;;;;;;6361966;27;20212;-70
2023/03/26 10:28:58;;;;;;;8.57;6.25;;;;;;;;;;6360543;27;19923;-70
2023/03/26 10:32:08;;;;;;;9.23;6.93;;;;;;;;;;6362315;27;20203;-70
2023/03/26 10:35:20;;;;;;;9.82;6.72;;;;;;;;;;6366266;27;20139;-70
2023/03/26 10:38:31;;;;;;;10.77;6.72;;;;;;;;;;6363739;27;20082;-70
2023/03/26 10:41:39;;;;;;;9.07;6.78;;;;;;;;;;6363634;27;20058;-70
2023/03/26 10:44:59;;;;;;;7.93;6.28;;;;;;;;;;6361559;27;20096;-70
2023/03/26 10:48:23;;;;;;;11.10;6.53;;;;;;;;;;6366044;27;20047;-70
2023/03/26 10:51:35;;;;;;;9.67;6.13;;;;;;;;;;6363713;27;20066;-70
2023/03/26 10:54:44;;;;;;;10.38;7.00;;;;;;;;;;6362745;27;20046;-69
2023/03/26 10:57:50;;;;;;;12.98;7.28;;;;;;;;;;6365381;27;20099;-70
2023/03/26 11:00:55;;;;;;;10.23;6.72;;;;;;;;;;6362726;27;20045;-70
2023/03/26 11:04:00;;;;;;;12.82;7.35;;;;;;;;;;6362531;27;20082;-70
2023/03/26 11:07:25;;;;;;;10.40;7.70;;;;;;;;;;6362646;27;20047;-70
2023/03/26 11:10:36;;;;;;;10.73;6.88;;;;;;;;;;6360592;27;20055;-70
2023/03/26 11:14:05;;;;;;;12.50;7.30;;;;;;;;;;6359941;27;20212;-70
2023/03/26 11:17:15;;;;;;;11.07;7.13;;;;;;;;;;6350933;27;20058;-70
2023/03/26 11:20:21;;;;;;;10.23;6.38;;;;;;;;;;6360909;27;20201;-70
2023/03/26 11:23:29;;;;;;;10.23;6.90;;;;;;;;;;6362927;27;20146;-70
2023/03/26 11:26:43;;;;;;;7.93;6.40;;;;;;;;;;6363680;27;20066;-70
2023/03/26 11:33:10;;;;;;;8.77;6.10;;;;;;;;;;6332826;27;20104;-70
2023/03/26 11:36:22;;;;;;;10.18;6.55;;;;;;;;;;6361534;27;20340;-70
2023/03/26 11:39:26;;;;;;;9.82;6.45;;;;;;;;;;6365397;27;20342;-70
2023/03/26 11:42:28;;;;;;;10.02;6.47;;;;;;;;;;6361705;27;20121;-70
2023/03/26 11:45:32;;;;;;;10.43;7.03;;;;;;;;;;6362323;27;20331;-70
2023/03/26 11:48:37;;;;;;;9.43;6.35;;;;;;;;;;6362869;27;20200;-70
2023/03/26 11:51:41;;;;;;;14.07;6.40;;;;;;;;;;6359449;27;20039;-70
2023/03/26 11:54:47;;;;;;;15.38;6.35;;;;;;;;;;6361430;27;20055;-70
2023/03/26 11:57:52;;;;;;;11.68;7.22;;;;;;;;;;6362413;27;20070;-70
2023/03/26 12:01:01;;;;;;;9.88;6.50;;;;;;;;;;6359143;27;20279;-70
2023/03/26 12:04:05;;;;;;;6.97;6.22;;;;;;;;;;6360684;27;20062;-70
2023/03/26 12:07:16;;;;;;;9.07;6.43;;;;;;;;;;6360714;27;20207;-70
2023/03/26 12:13:55;;;;;;;10.65;7.25;;;;;;;;;;6351607;27;20107;-70
2023/03/26 12:16:59;;;;;;;10.18;6.90;;;;;;;;;;6360504;27;20266;-70
2023/03/26 12:20:06;;;;;;;;;;;;;;;;;;6353492;28;20096;-70
2023/03/26 12:23:35;;;;;;;11.05;6.93;;;;;;;;;;6359420;27;20108;-70
2023/03/26 12:26:40;;;;;;;9.98;6.85;;;;;;;;;;6360517;27;20040;-70
2023/03/26 12:29:42;;;;;;;8.10;7.03;;;;;;;;;;6362285;27;20544;-70
2023/03/26 12:32:43;;;;;;;9.18;7.47;;;;;;;;;;6348845;27;20047;-70
2023/03/26 12:35:45;;;;;;;11.52;6.72;;;;;;;;;;6358002;27;20044;-70
2023/03/26 12:38:49;;;;;;;11.82;6.93;;;;;;;;;;6364460;27;20039;-72
2023/03/26 12:41:58;;;;;;;9.50;7.10;;;;;;;;;;6361712;28;20541;-70
2023/03/26 12:45:00;;;;;;;12.75;7.20;;;;;;;;;;6350363;28;20326;-70
2023/03/26 12:48:01;;;;;;;11.23;7.25;;;;;;;;;;6362211;28;20298;-69
2023/03/26 12:51:17;;;;;;;11.32;7.22;;;;;;;;;;6331293;28;20048;-70
2023/03/26 12:54:35;;;;;;;9.25;6.72;;;;;;;;;;6359276;27;20055;-70
2023/03/26 12:57:42;;;;;;;9.90;6.82;;;;;;;;;;6344378;28;20061;-70
2023/03/26 13:00:50;;;;;;;10.38;7.07;;;;;;;;;;6349887;28;20055;-70
2023/03/26 13:04:33;;;;;;;12.48;7.80;;;;;;;;;;6366581;27;20043;-70
2023/03/26 13:07:58;;;;;;;8.68;6.30;;;;;;;;;;6363908;27;20053;-70
2023/03/26 13:11:07;;;;;;;9.77;7.60;;;;;;;;;;6362428;27;20900;-70
2023/03/26 13:14:29;;;;;;;10.52;6.70;;;;;;;;;;6358672;27;20055;-70
2023/03/26 13:17:35;;;;;;;8.35;5.72;;;;;;;;;;6365002;27;20059;-69
2023/03/26 13:20:49;;;;;;;11.48;4.65;;;;;;;;;;6366027;27;20051;-70
2023/03/26 13:23:54;;;;;;;7.22;4.10;;;;;;;;;;6363831;27;20137;-70
2023/03/26 13:27:11;;;;;;;7.97;4.53;;;;;;;;;;6363244;27;20109;-69
2023/03/26 13:30:20;;;;;;;9.55;4.38;;;;;;;;;;6363923;27;20350;-70
2023/03/26 13:33:45;;;;;;;10.90;5.38;;;;;;;;;;6363089;27;20051;-69
2023/03/26 13:36:55;;;;;;;10.15;5.20;;;;;;;;;;6360767;27;20055;-70
2023/03/26 13:40:05;;;;;;;8.48;4.60;;;;;;;;;;6366302;27;20060;-69
2023/03/26 13:43:25;;;;;;;7.15;4.22;;;;;;;;;;6365271;27;20065;-70
2023/03/26 13:46:31;;;;;;;10.02;5.60;;;;;;;;;;6367024;27;20089;-69
2023/03/26 13:49:36;;;;;;;11.23;5.07;;;;;;;;;;6364315;27;20116;-69
2023/03/26 13:52:41;;;;;;;9.88;6.75;;;;;;;;;;6365156;27;20055;-69
2023/03/26 13:55:45;;;;;;;10.63;6.40;;;;;;;;;;6363625;27;20035;-69
2023/03/26 13:58:52;;;;;;;11.27;5.55;;;;;;;;;;6364089;27;20062;-69
2023/03/26 14:01:57;;;;;;;11.57;4.78;;;;;;;;;;6364298;27;20039;-69
2023/03/26 14:05:04;;;;;;;9.65;6.00;;;;;;;;;;6365394;27;20050;-69
2023/03/26 14:08:11;;;;;;;11.10;5.72;;;;;;;;;;6362067;27;20235;-69
2023/03/26 14:11:16;;;;;;;12.80;6.25;;;;;;;;;;6361612;27;20194;-69
2023/03/26 14:14:24;;;;;;;12.23;6.18;;;;;;;;;;6363983;27;20046;-69
2023/03/26 14:17:30;;;;;;;10.30;6.80;;;;;;;;;;6364267;27;20051;-69
2023/03/26 14:21:08;;;;;;;11.43;6.10;;;;;;;;;;6366976;27;20335;-69
2023/03/26 14:24:31;;;;;;;11.30;6.10;;;;;;;;;;6272564;28;20049;-69
2023/03/26 14:27:46;;;;;;;10.75;4.78;;;;;;;;;;6271799;28;20197;-69
2023/03/26 14:31:03;;;;;;;9.90;5.13;;;;;;;;;;6270208;28;20053;-69
2023/03/26 14:34:15;;;;;;;11.18;5.57;;;;;;;;;;6270087;28;20299;-69
2023/03/26 14:37:52;;;;;;;11.05;5.57;;;;;;;;;;6271835;28;20340;-69
2023/03/26 14:40:58;;;;;;;11.15;5.72;;;;;;;;;;6271622;28;20352;-69
2023/03/26 14:44:17;;;;;;;12.57;6.05;;;;;;;;;;6271865;28;20053;-69
2023/03/26 14:47:21;;;;;;;10.82;5.13;;;;;;;;;;6271701;28;20099;-69
2023/03/26 14:50:41;;;;;;;8.85;5.85;;;;;;;;;;6270201;28;20289;-69
2023/03/26 14:53:45;;;;;;;8.77;5.60;;;;;;;;;;6285053;27;20047;-69
2023/03/26 14:56:52;;;;;;;;;;;;;;;;;;6363887;27;20062;-69
2023/03/26 15:00:24;;;;;;;12.88;6.13;;;;;;;;;;6364694;27;19951;-69
2023/03/26 15:04:06;;;;;;;12.38;6.18;;;;;;;;;;6361987;27;20392;-69
2023/03/26 15:07:24;;;;;;;9.90;6.35;;;;;;;;;;6361065;27;20232;-69
2023/03/26 15:11:06;;;;;;;9.27;6.72;;;;;;;;;;6362836;27;20048;-69
2023/03/26 15:14:38;;;;;;;10.32;6.40;;;;;;;;;;6364093;27;20477;-69
2023/03/26 15:18:24;;;;;;;9.63;6.82;;;;;;;;;;6360496;27;20055;-69
2023/03/26 15:22:00;;;;;;;9.98;7.60;;;;;;;;;;6363546;27;20102;-69
2023/03/26 15:25:41;;;;;;;14.50;8.70;;;;;;;;;;6360078;27;20092;-69
2023/03/26 15:29:10;;;;;;;12.18;7.50;;;;;;;;;;6361218;27;20047;-70
2023/03/26 15:32:40;;;;;;;10.50;6.65;;;;;;;;;;6365044;27;20132;-69
2023/03/26 15:36:15;;;;;;;7.68;5.38;;;;;;;;;;6363126;27;20090;-69
2023/03/26 15:39:42;;;;;;;7.32;4.97;;;;;;;;;;6363533;27;20327;-69
2023/03/26 15:42:52;;;;;;;7.53;4.47;;;;;;;;;;6364391;27;20062;-70
2023/03/26 15:46:24;;;;;;;5.75;3.53;;;;;;;;;;6359080;27;20062;-69
2023/03/26 15:49:34;;;;;;;5.88;3.80;;;;;;;;;;6361263;27;20061;-69
2023/03/26 15:52:39;;;;;;;6.93;3.97;;;;;;;;;;6360083;27;20043;-69
2023/03/26 15:55:45;;;;;;;4.22;3.40;;;;;;;;;;6362363;27;20359;-70
2023/03/26 15:58:52;;;;;;;5.93;3.58;;;;;;;;;;6361422;27;20216;-70
2023/03/26 16:02:01;;;;;;;5.63;3.20;;;;;;;;;;6361085;27;20084;-70
2023/03/26 16:05:25;;;;;;;4.68;3.00;;;;;;;;;;6359322;27;20071;-69
2023/03/26 16:08:35;;;;;;;6.77;3.07;;;;;;;;;;6360648;27;20324;-71
2023/03/26 16:11:49;;;;;;;4.18;2.55;;;;;;;;;;6357512;27;20051;-69
2023/03/26 16:15:15;;;;;;;5.90;2.40;;;;;;;;;;6358677;27;20100;-68
2023/03/26 16:18:25;;;;;;;3.58;2.25;;;;;;;;;;6360957;27;20290;-69
2023/03/26 16:21:54;;;;;;;3.08;2.25;;;;;;;;;;6360138;27;20374;-69
2023/03/26 16:25:21;;;;;;;3.13;2.10;;;;;;;;;;6361888;27;20110;-69
2023/03/26 16:28:35;;;;;;;4.43;2.20;;;;;;;;;;6360094;27;20105;-70
2023/03/26 16:31:38;;;;;;;2.85;2.00;;;;;;;;;;6360563;28;20283;-69
2023/03/26 16:34:48;;;;;;;4.22;2.47;;;;;;;;;;6358403;27;20117;-70
2023/03/26 16:37:50;;;;;;;6.07;2.83;;;;;;;;;;6361891;27;20053;-70
2023/03/26 16:41:05;;;;;;;3.60;2.50;;;;;;;;;;6362267;27;20328;-70
2023/03/26 16:44:15;;;;;;;4.70;2.70;;;;;;;;;;6364600;27;20064;-70
2023/03/26 16:47:22;;;;;;;4.63;2.65;;;;;;;;;;6365172;27;20043;-75
2023/03/26 16:50:32;;;;;;;2.70;2.10;;;;;;;;;;6364819;27;20056;-74
2023/03/26 16:53:58;;;;;;;4.00;2.70;;;;;;;;;;6365650;27;20250;-73
2023/03/26 16:57:31;;;;;;;4.18;2.42;;;;;;;;;;6338133;27;20074;-74
2023/03/26 17:01:07;;;;;;;3.95;2.15;;;;;;;;;;6334946;27;20332;-75
2023/03/26 17:04:15;;;;;;;3.83;2.55;;;;;;;;;;6336554;27;20044;-75
2023/03/26 17:07:25;;;;;;;3.08;2.20;;;;;;;;;;6340350;27;20059;-74
2023/03/26 17:10:32;;;;;;;3.42;2.03;;;;;;;;;;6337233;27;20055;-77
2023/03/26 17:13:43;;;;;;;3.72;2.20;;;;;;;;;;6341416;27;20398;-73
2023/03/26 17:16:48;;;;;;;3.63;2.30;;;;;;;;;;6339124;28;20040;-74
2023/03/26 17:19:56;;;;;;;3.90;1.90;;;;;;;;;;6339093;27;20172;-73
2023/03/26 17:23:08;;;;;;;3.55;2.05;;;;;;;;;;6341125;27;20062;-73
2023/03/26 17:26:17;;;;;;;3.22;2.00;;;;;;;;;;6337571;28;20059;-73
2023/03/26 17:29:26;;;;;;;3.58;2.20;;;;;;;;;;6328159;27;20056;-74
2023/03/26 17:32:56;;;;;;;4.20;2.08;;;;;;;;;;6332387;28;20059;-74
2023/03/26 17:36:33;;;;;;;3.25;2.00;;;;;;;;;;6337158;27;20050;-72
2023/03/26 17:40:35;;;;;;;3.17;1.98;;;;;;;;;;6290415;28;20179;-71
2023/03/26 17:43:42;;;;;;;3.97;2.10;;;;;;;;;;6339456;27;20055;-70
2023/03/26 17:46:51;;;;;;;5.60;2.60;;;;;;;;;;6338711;27;20052;-70
2023/03/26 17:53:19;;;;;;;3.08;2.38;;;;;;;;;;6333423;27;20088;-68
2023/03/26 17:56:24;;;;;;;4.60;2.40;;;;;;;;;;6354991;27;20233;-69
2023/03/26 17:59:27;;;;;;;3.95;2.28;;;;;;;;;;6363788;27;20115;-69
2023/03/26 18:02:34;;;;;;;8.30;2.85;;;;;;;;;;6366050;27;20047;-69
2023/03/26 18:05:39;;;;;;;9.35;3.03;;;;;;;;;;6358052;27;20052;-72
2023/03/26 18:08:58;;;;;;;5.90;3.20;;;;;;;;;;6367365;27;20114;-72
2023/03/26 18:12:24;;;;;;;4.55;2.95;;;;;;;;;;6362360;27;20042;-73
2023/03/26 18:15:35;;;;;;;3.72;2.70;;;;;;;;;;6350262;27;20059;-71
2023/03/26 18:18:42;;;;;;;6.72;3.70;;;;;;;;;;6360566;27;20062;-70
2023/03/26 18:21:47;;;;;;;5.65;3.50;;;;;;;;;;6365182;27;20054;-70
2023/03/26 18:24:50;;;;;;;5.47;3.50;;;;;;;;;;6369128;27;20118;-72
2023/03/26 18:27:52;;;;;;;5.97;4.00;;;;;;;;;;6365038;27;20079;-72
2023/03/26 18:30:54;;;;;;;6.35;4.05;;;;;;;;;;6369028;27;20073;-75
2023/03/26 18:33:58;;;;;;;6.88;3.90;;;;;;;;;;6370939;27;20084;-73
2023/03/26 18:37:13;;;;;;;5.20;3.53;;;;;;;;;;6367235;27;20121;-75
2023/03/26 18:40:26;;;;;;;6.97;4.10;;;;;;;;;;6373203;27;21306;-74
2023/03/26 18:43:28;;;;;;;5.63;4.07;;;;;;;;;;6364755;27;20273;-73
2023/03/26 18:46:29;;;;;;;10.90;4.28;;;;;;;;;;6363658;27;20052;-74
2023/03/26 18:49:32;;;;;;;8.38;4.72;;;;;;;;;;6367969;27;20046;-73
2023/03/26 18:52:35;;;;;;;7.88;5.10;;;;;;;;;;6365040;27;20079;-73
2023/03/26 18:55:38;;;;;;;9.50;5.40;;;;;;;;;;6365756;27;20104;-73
2023/03/26 18:58:40;;;;;;;8.07;5.07;;;;;;;;;;6368995;27;20053;-74
2023/03/26 19:01:43;;;;;;;8.00;5.38;;;;;;;;;;6364761;27;20055;-73
2023/03/26 19:04:47;;;;;;;9.50;6.03;;;;;;;;;;6370366;27;20096;-73
2023/03/26 19:07:51;;;;;;;11.75;7.15;;;;;;;;;;6368515;27;20102;-73
2023/03/26 19:10:57;;;;;;;8.47;6.13;;;;;;;;;;6364763;27;20071;-73
2023/03/26 19:14:07;;;;;;;9.57;6.10;;;;;;;;;;6362946;27;21140;-72
2023/03/26 19:17:08;;;;;;;13.80;7.70;;;;;;;;;;6367240;27;20055;-73
2023/03/26 19:20:33;;;;;;;16.50;8.00;;;;;;;;;;6363586;27;20261;-74
2023/03/26 19:23:36;;;;;;;;;;;;;;;;;;6372789;27;20050;-73
2023/03/26 19:26:38;;;;;;;14.98;10.25;;;;;;;;;;6367992;27;19929;-74
2023/03/26 19:29:40;;;;;;;16.00;10.85;;;;;;;;;;6365887;27;20039;-75
2023/03/26 19:32:52;;;;;;;17.05;11.52;;;;;;;;;;6367713;27;20125;-75
2023/03/26 19:36:02;;;;;;;18.17;11.65;;;;;;;;;;6365877;27;20035;-74
2023/03/26 19:39:11;;;;;;;15.63;12.13;;;;;;;;;;6369977;27;20403;-74
2023/03/26 19:42:15;;;;;;;16.50;11.30;;;;;;;;;;6367127;27;20043;-72
2023/03/26 19:45:19;;;;;;;14.30;10.93;;;;;;;;;;6365109;27;20044;-73
2023/03/26 19:48:21;;;;;;;;;;;;;;;;;;6373220;27;20050;-70
2023/03/26 19:51:25;;;;;;;17.73;11.35;;;;;;;;;;6362890;27;19923;-72
2023/03/26 19:54:29;;;;;;;20.00;12.18;;;;;;;;;;6365637;27;20055;-69
2023/03/26 19:57:33;;;;;;;21.23;13.77;;;;;;;;;;6362100;27;20066;-72
2023/03/26 20:00:35;;;;;;;19.98;13.98;;;;;;;;;;6364753;27;20051;-73
2023/03/26 20:03:39;;;;;;;22.80;14.60;;;;;;;;;;6366456;27;20096;-74
2023/03/26 20:06:41;;;;;;;23.50;14.63;;;;;;;;;;6369188;27;20043;-73
2023/03/26 20:09:44;;;;;;;21.63;14.75;;;;;;;;;;6365931;27;20061;-73
2023/03/26 20:12:46;;;;;;;20.02;13.98;;;;;;;;;;6364803;27;20078;-73
2023/03/26 20:15:52;;;;;;;22.80;15.40;;;;;;;;;;6369898;27;20213;-73
2023/03/26 20:18:56;;;;;;;22.55;15.27;;;;;;;;;;6366499;27;20347;-74
2023/03/26 20:21:57;;;;;;;29.10;16.95;;;;;;;;;;6370798;27;20067;-74
2023/03/26 20:25:01;;;;;;;20.45;15.23;;;;;;;;;;6366897;27;20327;-74
2023/03/26 20:28:03;;;;;;;24.15;15.75;;;;;;;;;;6366041;27;20051;-74
2023/03/26 20:31:06;;;;;;;27.60;16.98;;;;;;;;;;6364273;28;20320;-72
2023/03/26 20:34:15;;;;;;;27.37;19.33;;;;;;;;;;6368527;27;20065;-74
2023/03/26 20:37:17;;;;;;;26.95;16.92;;;;;;;;;;6368216;27;20459;-71
2023/03/26 20:40:20;;;;;;;25.38;17.58;;;;;;;;;;6364885;27;20047;-73
2023/03/26 20:43:24;;;;;;;29.13;17.35;;;;;;;;;;6363506;27;20040;-77
2023/03/26 20:46:26;;;;;;;22.10;16.52;;;;;;;;;;6364400;27;20093;-72